Avon, New Jersey
Current Conditions -  °F | °C
As of 3:15 PM on Friday 24 Oct 2014 (Local Time) from KBLM Reporting Station
Clear Clear  
Wind Chill: 64°   Ceiling: Unl
Heat Index: 64°   Visibility: 10mi
Dew Point: 45°   Wind: 15mph
Humidity: 49%   Direction: 310°NW
Pressure: 29.76"   Gusts: 23mph
Location:  40.1917°N, 74.0159°W
Report Text: KBLM 241915Z AUTO 31013G20KT 10SM CLR 18/07 A2976 RMK AO1
Loading
Personal Weather Stations






























Interactive Weather Map New forecast layout! Learn more

10-Day Weather Forecast

Advertisements
Track Severe Weather on mobile